sensor_id;sensor_type;location;lat;lon;timestamp;temperature;humidity
65707;SHT31;52423;43.512;5.220;2023-04-06T00:00:49;9.59;37.28
65707;SHT31;52423;43.512;5.220;2023-04-06T00:03:15;9.57;37.85
65707;SHT31;52423;43.512;5.220;2023-04-06T00:05:41;9.62;37.93
65707;SHT31;52423;43.512;5.220;2023-04-06T00:08:06;9.52;37.69
65707;SHT31;52423;43.512;5.220;2023-04-06T00:10:32;9.52;37.21
65707;SHT31;52423;43.512;5.220;2023-04-06T00:12:58;9.50;37.39
65707;SHT31;52423;43.512;5.220;2023-04-06T00:15:23;9.68;38.24
65707;SHT31;52423;43.512;5.220;2023-04-06T00:17:49;9.72;37.58
65707;SHT31;52423;43.512;5.220;2023-04-06T00:20:15;9.67;37.84
65707;SHT31;52423;43.512;5.220;2023-04-06T00:22:40;9.57;38.20
65707;SHT31;52423;43.512;5.220;2023-04-06T00:25:06;9.42;38.28
65707;SHT31;52423;43.512;5.220;2023-04-06T00:27:32;9.31;38.92
65707;SHT31;52423;43.512;5.220;2023-04-06T00:29:57;9.23;38.68
65707;SHT31;52423;43.512;5.220;2023-04-06T00:32:22;9.21;39.12
65707;SHT31;52423;43.512;5.220;2023-04-06T00:34:48;9.17;38.49
65707;SHT31;52423;43.512;5.220;2023-04-06T00:37:13;9.16;38.27
65707;SHT31;52423;43.512;5.220;2023-04-06T00:39:39;9.17;38.26
65707;SHT31;52423;43.512;5.220;2023-04-06T00:42:11;9.26;38.53
65707;SHT31;52423;43.512;5.220;2023-04-06T00:44:43;9.33;38.21
65707;SHT31;52423;43.512;5.220;2023-04-06T00:47:08;9.38;37.96
65707;SHT31;52423;43.512;5.220;2023-04-06T00:49:34;9.50;38.22
65707;SHT31;52423;43.512;5.220;2023-04-06T00:52:00;9.62;38.12
65707;SHT31;52423;43.512;5.220;2023-04-06T00:54:29;9.62;38.97
65707;SHT31;52423;43.512;5.220;2023-04-06T00:56:55;9.57;38.66
65707;SHT31;52423;43.512;5.220;2023-04-06T00:59:21;9.38;38.25
65707;SHT31;52423;43.512;5.220;2023-04-06T01:01:46;9.23;39.28
65707;SHT31;52423;43.512;5.220;2023-04-06T01:04:12;9.35;40.18
65707;SHT31;52423;43.512;5.220;2023-04-06T01:06:38;9.37;39.08
65707;SHT31;52423;43.512;5.220;2023-04-06T01:09:03;9.28;38.89
65707;SHT31;52423;43.512;5.220;2023-04-06T01:11:29;9.10;39.24
65707;SHT31;52423;43.512;5.220;2023-04-06T01:13:55;8.94;39.40
65707;SHT31;52423;43.512;5.220;2023-04-06T01:16:20;9.01;40.00
65707;SHT31;52423;43.512;5.220;2023-04-06T01:18:45;8.65;39.54
65707;SHT31;52423;43.512;5.220;2023-04-06T01:21:11;8.73;40.75
65707;SHT31;52423;43.512;5.220;2023-04-06T01:23:43;8.62;40.51
65707;SHT31;52423;43.512;5.220;2023-04-06T01:26:09;8.53;40.83
65707;SHT31;52423;43.512;5.220;2023-04-06T01:28:35;8.42;40.83
65707;SHT31;52423;43.512;5.220;2023-04-06T01:31:02;8.44;40.58
65707;SHT31;52423;43.512;5.220;2023-04-06T01:33:28;8.49;41.36
65707;SHT31;52423;43.512;5.220;2023-04-06T01:35:53;8.41;40.54
65707;SHT31;52423;43.512;5.220;2023-04-06T01:38:18;8.38;41.34
65707;SHT31;52423;43.512;5.220;2023-04-06T01:40:44;8.15;40.95
65707;SHT31;52423;43.512;5.220;2023-04-06T01:43:09;8.14;42.23
65707;SHT31;52423;43.512;5.220;2023-04-06T01:45:35;8.30;42.30
65707;SHT31;52423;43.512;5.220;2023-04-06T01:48:00;8.39;41.96
65707;SHT31;52423;43.512;5.220;2023-04-06T01:50:26;8.22;41.74
65707;SHT31;52423;43.512;5.220;2023-04-06T01:52:51;8.02;43.00
65707;SHT31;52423;43.512;5.220;2023-04-06T01:55:17;7.97;43.70
65707;SHT31;52423;43.512;5.220;2023-04-06T01:57:42;7.59;44.72
65707;SHT31;52423;43.512;5.220;2023-04-06T02:00:08;7.38;45.36
65707;SHT31;52423;43.512;5.220;2023-04-06T02:02:33;7.29;45.10
65707;SHT31;52423;43.512;5.220;2023-04-06T02:04:59;7.16;45.52
65707;SHT31;52423;43.512;5.220;2023-04-06T02:07:24;7.11;46.09
65707;SHT31;52423;43.512;5.220;2023-04-06T02:09:54;7.09;46.65
65707;SHT31;52423;43.512;5.220;2023-04-06T02:12:19;7.15;47.26
65707;SHT31;52423;43.512;5.220;2023-04-06T02:14:45;7.19;47.46
65707;SHT31;52423;43.512;5.220;2023-04-06T02:17:10;7.12;47.50
65707;SHT31;52423;43.512;5.220;2023-04-06T02:19:35;7.07;48.23
65707;SHT31;52423;43.512;5.220;2023-04-06T02:22:01;7.11;48.52
65707;SHT31;52423;43.512;5.220;2023-04-06T02:24:26;7.09;48.88
65707;SHT31;52423;43.512;5.220;2023-04-06T02:26:52;6.99;49.20
65707;SHT31;52423;43.512;5.220;2023-04-06T02:29:17;6.95;49.49
65707;SHT31;52423;43.512;5.220;2023-04-06T02:31:42;6.88;49.90
65707;SHT31;52423;43.512;5.220;2023-04-06T02:34:08;6.80;50.46
65707;SHT31;52423;43.512;5.220;2023-04-06T02:36:36;6.73;50.83
65707;SHT31;52423;43.512;5.220;2023-04-06T02:39:01;6.77;50.99
65707;SHT31;52423;43.512;5.220;2023-04-06T02:41:27;6.99;50.20
65707;SHT31;52423;43.512;5.220;2023-04-06T02:43:52;7.18;50.69
65707;SHT31;52423;43.512;5.220;2023-04-06T02:46:17;7.36;51.12
65707;SHT31;52423;43.512;5.220;2023-04-06T02:48:43;7.59;51.42
65707;SHT31;52423;43.512;5.220;2023-04-06T02:51:08;7.77;50.77
65707;SHT31;52423;43.512;5.220;2023-04-06T02:53:34;7.84;49.97
65707;SHT31;52423;43.512;5.220;2023-04-06T02:55:59;7.91;49.36
65707;SHT31;52423;43.512;5.220;2023-04-06T02:58:25;8.05;49.10
65707;SHT31;52423;43.512;5.220;2023-04-06T03:00:50;7.97;47.96
65707;SHT31;52423;43.512;5.220;2023-04-06T03:03:15;7.91;47.59
65707;SHT31;52423;43.512;5.220;2023-04-06T03:05:41;7.84;47.15
65707;SHT31;52423;43.512;5.220;2023-04-06T03:08:06;7.76;46.99
65707;SHT31;52423;43.512;5.220;2023-04-06T03:10:31;7.89;47.08
65707;SHT31;52423;43.512;5.220;2023-04-06T03:12:57;7.95;47.91
65707;SHT31;52423;43.512;5.220;2023-04-06T03:15:22;7.97;47.39
65707;SHT31;52423;43.512;5.220;2023-04-06T03:17:48;8.05;46.83
65707;SHT31;52423;43.512;5.220;2023-04-06T03:20:13;8.04;47.70
65707;SHT31;52423;43.512;5.220;2023-04-06T03:22:38;7.91;47.85
65707;SHT31;52423;43.512;5.220;2023-04-06T03:25:04;7.89;48.30
65707;SHT31;52423;43.512;5.220;2023-04-06T03:27:30;7.62;50.00
65707;SHT31;52423;43.512;5.220;2023-04-06T03:29:55;7.42;51.51
65707;SHT31;52423;43.512;5.220;2023-04-06T03:32:20;7.33;51.43
65707;SHT31;52423;43.512;5.220;2023-04-06T03:34:46;7.07;52.31
65707;SHT31;52423;43.512;5.220;2023-04-06T03:37:11;7.07;53.14
65707;SHT31;52423;43.512;5.220;2023-04-06T03:39:37;7.07;53.25
65707;SHT31;52423;43.512;5.220;2023-04-06T03:42:02;7.04;53.81
65707;SHT31;52423;43.512;5.220;2023-04-06T03:44:27;7.09;54.15
65707;SHT31;52423;43.512;5.220;2023-04-06T03:46:53;7.02;54.54
65707;SHT31;52423;43.512;5.220;2023-04-06T03:49:18;6.98;55.73
65707;SHT31;52423;43.512;5.220;2023-04-06T03:51:43;6.90;56.17
65707;SHT31;52423;43.512;5.220;2023-04-06T03:54:09;6.94;56.58
65707;SHT31;52423;43.512;5.220;2023-04-06T03:56:34;6.97;57.45
65707;SHT31;52423;43.512;5.220;2023-04-06T03:59:00;7.04;57.59
65707;SHT31;52423;43.512;5.220;2023-04-06T04:01:26;7.18;57.92
65707;SHT31;52423;43.512;5.220;2023-04-06T04:03:53;7.07;58.31
65707;SHT31;52423;43.512;5.220;2023-04-06T04:06:18;6.97;58.82
65707;SHT31;52423;43.512;5.220;2023-04-06T04:08:43;6.77;59.75
65707;SHT31;52423;43.512;5.220;2023-04-06T04:11:09;6.74;60.21
65707;SHT31;52423;43.512;5.220;2023-04-06T04:13:34;6.63;60.74
65707;SHT31;52423;43.512;5.220;2023-04-06T04:16:00;6.56;61.07
65707;SHT31;52423;43.512;5.220;2023-04-06T04:18:25;6.50;60.92
65707;SHT31;52423;43.512;5.220;2023-04-06T04:20:50;6.53;60.11
65707;SHT31;52423;43.512;5.220;2023-04-06T04:23:16;6.37;59.90
65707;SHT31;52423;43.512;5.220;2023-04-06T04:25:43;6.26;60.98
65707;SHT31;52423;43.512;5.220;2023-04-06T04:28:08;6.25;61.50
65707;SHT31;52423;43.512;5.220;2023-04-06T04:30:34;6.22;62.11
65707;SHT31;52423;43.512;5.220;2023-04-06T04:33:00;6.23;62.40
65707;SHT31;52423;43.512;5.220;2023-04-06T04:35:26;6.47;62.13
65707;SHT31;52423;43.512;5.220;2023-04-06T04:37:52;6.60;61.95
65707;SHT31;52423;43.512;5.220;2023-04-06T04:40:17;6.73;62.12
65707;SHT31;52423;43.512;5.220;2023-04-06T04:42:42;6.76;62.20
65707;SHT31;52423;43.512;5.220;2023-04-06T04:45:08;6.76;62.88
65707;SHT31;52423;43.512;5.220;2023-04-06T04:47:34;6.80;63.07
65707;SHT31;52423;43.512;5.220;2023-04-06T04:49:59;6.78;63.41
65707;SHT31;52423;43.512;5.220;2023-04-06T04:52:24;6.85;63.69
65707;SHT31;52423;43.512;5.220;2023-04-06T04:54:50;6.98;63.58
65707;SHT31;52423;43.512;5.220;2023-04-06T04:57:15;6.83;64.51
65707;SHT31;52423;43.512;5.220;2023-04-06T04:59:42;6.76;65.06
65707;SHT31;52423;43.512;5.220;2023-04-06T05:02:08;6.76;65.61
65707;SHT31;52423;43.512;5.220;2023-04-06T05:04:33;6.76;66.06
65707;SHT31;52423;43.512;5.220;2023-04-06T05:07:09;6.80;66.24
65707;SHT31;52423;43.512;5.220;2023-04-06T05:09:34;6.83;66.73
65707;SHT31;52423;43.512;5.220;2023-04-06T05:12:00;6.95;66.92
65707;SHT31;52423;43.512;5.220;2023-04-06T05:14:27;6.90;67.39
65707;SHT31;52423;43.512;5.220;2023-04-06T05:16:52;6.88;67.51
65707;SHT31;52423;43.512;5.220;2023-04-06T05:19:18;6.92;67.41
65707;SHT31;52423;43.512;5.220;2023-04-06T05:21:44;6.87;67.67
65707;SHT31;52423;43.512;5.220;2023-04-06T05:24:09;6.91;67.46
65707;SHT31;52423;43.512;5.220;2023-04-06T05:26:35;6.92;67.78
65707;SHT31;52423;43.512;5.220;2023-04-06T05:29:00;7.01;67.57
65707;SHT31;52423;43.512;5.220;2023-04-06T05:31:26;7.15;67.43
65707;SHT31;52423;43.512;5.220;2023-04-06T05:33:51;7.15;67.10
65707;SHT31;52423;43.512;5.220;2023-04-06T05:36:17;7.22;66.92
65707;SHT31;52423;43.512;5.220;2023-04-06T05:38:42;7.14;67.47
65707;SHT31;52423;43.512;5.220;2023-04-06T05:41:07;7.23;67.10
65707;SHT31;52423;43.512;5.220;2023-04-06T05:43:33;7.32;66.69
65707;SHT31;52423;43.512;5.220;2023-04-06T05:45:58;7.30;66.81
65707;SHT31;52423;43.512;5.220;2023-04-06T05:48:24;7.23;66.53
65707;SHT31;52423;43.512;5.220;2023-04-06T05:50:50;7.02;66.70
65707;SHT31;52423;43.512;5.220;2023-04-06T05:53:16;6.99;67.02
65707;SHT31;52423;43.512;5.220;2023-04-06T05:55:41;6.91;67.55
65707;SHT31;52423;43.512;5.220;2023-04-06T05:58:07;7.01;67.25
65707;SHT31;52423;43.512;5.220;2023-04-06T06:00:32;7.16;67.27
65707;SHT31;52423;43.512;5.220;2023-04-06T06:02:58;7.32;66.67
65707;SHT31;52423;43.512;5.220;2023-04-06T06:05:24;7.32;66.67
65707;SHT31;52423;43.512;5.220;2023-04-06T06:07:49;7.35;66.96
65707;SHT31;52423;43.512;5.220;2023-04-06T06:10:15;7.40;66.35
65707;SHT31;52423;43.512;5.220;2023-04-06T06:12:40;7.46;65.77
65707;SHT31;52423;43.512;5.220;2023-04-06T06:15:06;7.65;65.05
65707;SHT31;52423;43.512;5.220;2023-04-06T06:17:31;7.71;64.83
65707;SHT31;52423;43.512;5.220;2023-04-06T06:19:57;7.76;64.98
65707;SHT31;52423;43.512;5.220;2023-04-06T06:22:22;7.91;64.68
65707;SHT31;52423;43.512;5.220;2023-04-06T06:24:48;8.14;64.13
65707;SHT31;52423;43.512;5.220;2023-04-06T06:27:14;8.32;63.47
65707;SHT31;52423;43.512;5.220;2023-04-06T06:29:40;8.35;63.21
65707;SHT31;52423;43.512;5.220;2023-04-06T06:32:05;8.46;63.01
65707;SHT31;52423;43.512;5.220;2023-04-06T06:34:31;8.58;62.77
65707;SHT31;52423;43.512;5.220;2023-04-06T06:36:56;8.72;62.49
65707;SHT31;52423;43.512;5.220;2023-04-06T06:39:21;8.75;62.28
65707;SHT31;52423;43.512;5.220;2023-04-06T06:41:47;8.89;61.44
65707;SHT31;52423;43.512;5.220;2023-04-06T06:44:12;8.83;60.41
65707;SHT31;52423;43.512;5.220;2023-04-06T06:46:38;8.99;60.18
65707;SHT31;52423;43.512;5.220;2023-04-06T06:49:03;9.00;59.73
65707;SHT31;52423;43.512;5.220;2023-04-06T06:51:28;9.19;58.16
65707;SHT31;52423;43.512;5.220;2023-04-06T06:53:54;9.30;57.56
65707;SHT31;52423;43.512;5.220;2023-04-06T06:56:19;9.42;55.86
65707;SHT31;52423;43.512;5.220;2023-04-06T06:58:45;9.59;56.28
65707;SHT31;52423;43.512;5.220;2023-04-06T07:01:11;9.72;53.68
65707;SHT31;52423;43.512;5.220;2023-04-06T07:03:36;9.86;53.72
65707;SHT31;52423;43.512;5.220;2023-04-06T07:06:02;10.10;53.76
65707;SHT31;52423;43.512;5.220;2023-04-06T07:08:27;10.20;52.13
65707;SHT31;52423;43.512;5.220;2023-04-06T07:10:53;10.39;51.36
65707;SHT31;52423;43.512;5.220;2023-04-06T07:13:19;10.65;48.90
65707;SHT31;52423;43.512;5.220;2023-04-06T07:15:49;10.94;49.04
65707;SHT31;52423;43.512;5.220;2023-04-06T07:18:17;10.95;49.72
65707;SHT31;52423;43.512;5.220;2023-04-06T07:20:42;11.12;48.74
65707;SHT31;52423;43.512;5.220;2023-04-06T07:23:08;11.26;48.44
65707;SHT31;52423;43.512;5.220;2023-04-06T07:25:33;11.42;47.87
65707;SHT31;52423;43.512;5.220;2023-04-06T07:27:59;11.35;47.07
65707;SHT31;52423;43.512;5.220;2023-04-06T07:30:24;11.58;47.93
65707;SHT31;52423;43.512;5.220;2023-04-06T07:32:53;11.72;46.08
65707;SHT31;52423;43.512;5.220;2023-04-06T07:35:21;12.13;45.20
65707;SHT31;52423;43.512;5.220;2023-04-06T07:37:46;12.30;45.10
65707;SHT31;52423;43.512;5.220;2023-04-06T07:40:12;12.52;43.32
65707;SHT31;52423;43.512;5.220;2023-04-06T07:42:37;12.55;45.38
65707;SHT31;52423;43.512;5.220;2023-04-06T07:45:03;12.71;44.90
65707;SHT31;52423;43.512;5.220;2023-04-06T07:47:28;12.62;43.44
65707;SHT31;52423;43.512;5.220;2023-04-06T07:49:55;12.66;44.45
65707;SHT31;52423;43.512;5.220;2023-04-06T07:52:21;12.54;43.51
65707;SHT31;52423;43.512;5.220;2023-04-06T07:54:46;13.02;45.49
65707;SHT31;52423;43.512;5.220;2023-04-06T07:57:14;13.07;43.07
65707;SHT31;52423;43.512;5.220;2023-04-06T07:59:40;13.12;44.81
65707;SHT31;52423;43.512;5.220;2023-04-06T08:02:05;12.93;43.06
65707;SHT31;52423;43.512;5.220;2023-04-06T08:04:31;12.83;43.14
65707;SHT31;52423;43.512;5.220;2023-04-06T08:06:56;12.88;43.60
65707;SHT31;52423;43.512;5.220;2023-04-06T08:09:22;13.02;44.73
65707;SHT31;52423;43.512;5.220;2023-04-06T08:11:47;13.30;44.12
65707;SHT31;52423;43.512;5.220;2023-04-06T08:14:14;13.50;43.74
65707;SHT31;52423;43.512;5.220;2023-04-06T08:16:40;13.97;43.92
65707;SHT31;52423;43.512;5.220;2023-04-06T08:19:06;14.21;41.95
65707;SHT31;52423;43.512;5.220;2023-04-06T08:21:37;14.30;42.21
65707;SHT31;52423;43.512;5.220;2023-04-06T08:24:02;14.44;41.42
65707;SHT31;52423;43.512;5.220;2023-04-06T08:26:28;14.46;42.04
65707;SHT31;52423;43.512;5.220;2023-04-06T08:28:53;14.26;41.79
65707;SHT31;52423;43.512;5.220;2023-04-06T08:31:19;14.42;42.91
65707;SHT31;52423;43.512;5.220;2023-04-06T08:33:44;14.49;42.99
65707;SHT31;52423;43.512;5.220;2023-04-06T08:36:11;14.77;42.68
65707;SHT31;52423;43.512;5.220;2023-04-06T08:38:37;14.81;42.23
65707;SHT31;52423;43.512;5.220;2023-04-06T08:41:10;14.57;41.73
65707;SHT31;52423;43.512;5.220;2023-04-06T08:43:44;15.28;40.95
65707;SHT31;52423;43.512;5.220;2023-04-06T08:46:11;15.34;40.48
65707;SHT31;52423;43.512;5.220;2023-04-06T08:48:39;15.53;41.32
65707;SHT31;52423;43.512;5.220;2023-04-06T08:51:05;15.04;41.00
65707;SHT31;52423;43.512;5.220;2023-04-06T08:53:31;15.49;41.82
65707;SHT31;52423;43.512;5.220;2023-04-06T08:55:58;15.61;40.08
65707;SHT31;52423;43.512;5.220;2023-04-06T08:58:24;15.39;41.18
65707;SHT31;52423;43.512;5.220;2023-04-06T09:00:51;15.17;41.50
65707;SHT31;52423;43.512;5.220;2023-04-06T09:03:16;14.81;40.44
65707;SHT31;52423;43.512;5.220;2023-04-06T09:05:43;14.64;41.90
65707;SHT31;52423;43.512;5.220;2023-04-06T09:08:08;15.00;39.80
65707;SHT31;52423;43.512;5.220;2023-04-06T09:10:34;15.30;41.65
65707;SHT31;52423;43.512;5.220;2023-04-06T09:13:04;15.49;41.17
65707;SHT31;52423;43.512;5.220;2023-04-06T09:15:30;15.55;39.44
65707;SHT31;52423;43.512;5.220;2023-04-06T09:17:55;15.75;40.35
65707;SHT31;52423;43.512;5.220;2023-04-06T09:20:24;15.59;37.92
65707;SHT31;52423;43.512;5.220;2023-04-06T09:22:56;15.55;37.79
65707;SHT31;52423;43.512;5.220;2023-04-06T09:25:23;15.76;39.12
65707;SHT31;52423;43.512;5.220;2023-04-06T09:28:02;15.73;41.48
65707;SHT31;52423;43.512;5.220;2023-04-06T09:30:28;15.73;43.54
65707;SHT31;52423;43.512;5.220;2023-04-06T09:32:55;15.51;44.24
65707;SHT31;52423;43.512;5.220;2023-04-06T09:35:22;15.67;43.49
65707;SHT31;52423;43.512;5.220;2023-04-06T09:37:49;15.76;43.05
65707;SHT31;52423;43.512;5.220;2023-04-06T09:40:15;15.52;43.67
65707;SHT31;52423;43.512;5.220;2023-04-06T09:42:48;15.94;43.48
65707;SHT31;52423;43.512;5.220;2023-04-06T09:45:14;15.92;43.48
65707;SHT31;52423;43.512;5.220;2023-04-06T09:47:43;16.09;43.65
65707;SHT31;52423;43.512;5.220;2023-04-06T09:50:10;16.06;40.83
65707;SHT31;52423;43.512;5.220;2023-04-06T09:52:48;15.92;42.57
65707;SHT31;52423;43.512;5.220;2023-04-06T09:55:23;15.75;42.09
65707;SHT31;52423;43.512;5.220;2023-04-06T09:57:51;15.66;42.54
65707;SHT31;52423;43.512;5.220;2023-04-06T10:00:20;16.04;42.17
65707;SHT31;52423;43.512;5.220;2023-04-06T10:05:46;15.89;41.05
65707;SHT31;52423;43.512;5.220;2023-04-06T10:08:16;16.47;40.27
65707;SHT31;52423;43.512;5.220;2023-04-06T10:10:42;16.91;39.91
65707;SHT31;52423;43.512;5.220;2023-04-06T10:13:10;16.33;39.62
65707;SHT31;52423;43.512;5.220;2023-04-06T10:15:37;16.82;41.16
65707;SHT31;52423;43.512;5.220;2023-04-06T10:18:03;16.82;39.84
65707;SHT31;52423;43.512;5.220;2023-04-06T10:23:22;17.13;39.31
65707;SHT31;52423;43.512;5.220;2023-04-06T10:25:53;17.27;37.89
65707;SHT31;52423;43.512;5.220;2023-04-06T10:28:19;17.12;37.64
65707;SHT31;52423;43.512;5.220;2023-04-06T10:30:45;17.22;37.20
65707;SHT31;52423;43.512;5.220;2023-04-06T10:33:18;16.84;37.56
65707;SHT31;52423;43.512;5.220;2023-04-06T10:35:44;16.61;37.51
65707;SHT31;52423;43.512;5.220;2023-04-06T10:38:10;16.57;38.11
65707;SHT31;52423;43.512;5.220;2023-04-06T10:40:40;16.88;38.10
65707;SHT31;52423;43.512;5.220;2023-04-06T10:43:21;16.65;37.36
65707;SHT31;52423;43.512;5.220;2023-04-06T10:45:57;17.01;36.49
65707;SHT31;52423;43.512;5.220;2023-04-06T10:48:24;17.15;35.33
65707;SHT31;52423;43.512;5.220;2023-04-06T10:50:52;16.81;36.82
65707;SHT31;52423;43.512;5.220;2023-04-06T10:53:36;16.41;35.53
65707;SHT31;52423;43.512;5.220;2023-04-06T10:56:02;16.65;37.30
65707;SHT31;52423;43.512;5.220;2023-04-06T10:58:28;17.01;36.36
65707;SHT31;52423;43.512;5.220;2023-04-06T11:00:55;16.99;35.03
65707;SHT31;52423;43.512;5.220;2023-04-06T11:03:24;17.32;35.81
65707;SHT31;52423;43.512;5.220;2023-04-06T11:05:51;17.66;36.17
65707;SHT31;52423;43.512;5.220;2023-04-06T11:08:33;17.44;35.03
65707;SHT31;52423;43.512;5.220;2023-04-06T11:11:13;17.25;35.03
65707;SHT31;52423;43.512;5.220;2023-04-06T11:13:41;17.30;35.08
65707;SHT31;52423;43.512;5.220;2023-04-06T11:16:15;17.32;33.85
65707;SHT31;52423;43.512;5.220;2023-04-06T11:18:54;17.43;33.46
65707;SHT31;52423;43.512;5.220;2023-04-06T11:21:42;17.32;33.16
65707;SHT31;52423;43.512;5.220;2023-04-06T11:26:44;17.60;31.23
65707;SHT31;52423;43.512;5.220;2023-04-06T11:29:16;17.91;32.22
65707;SHT31;52423;43.512;5.220;2023-04-06T11:31:52;17.97;31.15
65707;SHT31;52423;43.512;5.220;2023-04-06T11:34:21;17.39;29.44
65707;SHT31;52423;43.512;5.220;2023-04-06T11:36:49;17.39;30.04
65707;SHT31;52423;43.512;5.220;2023-04-06T11:39:20;17.32;28.90
65707;SHT31;52423;43.512;5.220;2023-04-06T11:41:53;16.84;29.61
65707;SHT31;52423;43.512;5.220;2023-04-06T11:47:00;16.92;33.60
65707;SHT31;52423;43.512;5.220;2023-04-06T11:49:30;16.75;31.31
65707;SHT31;52423;43.512;5.220;2023-04-06T11:51:56;16.85;33.39
65707;SHT31;52423;43.512;5.220;2023-04-06T11:54:37;16.47;33.53
65707;SHT31;52423;43.512;5.220;2023-04-06T11:57:04;16.24;33.92
65707;SHT31;52423;43.512;5.220;2023-04-06T11:59:33;16.00;32.74
65707;SHT31;52423;43.512;5.220;2023-04-06T12:01:58;15.79;34.03
65707;SHT31;52423;43.512;5.220;2023-04-06T12:04:24;16.17;33.95
65707;SHT31;52423;43.512;5.220;2023-04-06T12:06:50;16.82;32.52
65707;SHT31;52423;43.512;5.220;2023-04-06T12:09:18;17.30;33.67
65707;SHT31;52423;43.512;5.220;2023-04-06T12:11:44;17.51;33.06
65707;SHT31;52423;43.512;5.220;2023-04-06T12:14:10;17.78;32.08
65707;SHT31;52423;43.512;5.220;2023-04-06T12:16:36;17.75;32.50
65707;SHT31;52423;43.512;5.220;2023-04-06T12:19:01;17.49;29.26
65707;SHT31;52423;43.512;5.220;2023-04-06T12:21:27;17.08;32.14
65707;SHT31;52423;43.512;5.220;2023-04-06T12:23:54;16.74;31.75
65707;SHT31;52423;43.512;5.220;2023-04-06T12:26:20;16.60;29.43
65707;SHT31;52423;43.512;5.220;2023-04-06T12:28:46;16.21;32.95
65707;SHT31;52423;43.512;5.220;2023-04-06T12:31:18;16.04;32.93
65707;SHT31;52423;43.512;5.220;2023-04-06T12:33:46;16.65;32.97
65707;SHT31;52423;43.512;5.220;2023-04-06T12:36:12;17.19;29.51
65707;SHT31;52423;43.512;5.220;2023-04-06T12:38:39;17.18;31.48
65707;SHT31;52423;43.512;5.220;2023-04-06T12:41:06;16.76;33.07
65707;SHT31;52423;43.512;5.220;2023-04-06T12:43:31;16.72;32.80
65707;SHT31;52423;43.512;5.220;2023-04-06T12:45:57;16.43;32.65
65707;SHT31;52423;43.512;5.220;2023-04-06T12:48:22;16.62;32.68
65707;SHT31;52423;43.512;5.220;2023-04-06T12:51:13;17.11;28.75
65707;SHT31;52423;43.512;5.220;2023-04-06T12:53:39;17.53;29.42
65707;SHT31;52423;43.512;5.220;2023-04-06T12:56:13;17.60;32.00
65707;SHT31;52423;43.512;5.220;2023-04-06T12:58:38;17.57;30.66
65707;SHT31;52423;43.512;5.220;2023-04-06T13:01:06;17.62;31.32
65707;SHT31;52423;43.512;5.220;2023-04-06T13:03:32;17.67;30.71
65707;SHT31;52423;43.512;5.220;2023-04-06T13:05:59;17.81;32.42
65707;SHT31;52423;43.512;5.220;2023-04-06T13:08:25;18.18;30.71
65707;SHT31;52423;43.512;5.220;2023-04-06T13:10:51;18.09;29.90
65707;SHT31;52423;43.512;5.220;2023-04-06T13:13:26;17.94;31.39
65707;SHT31;52423;43.512;5.220;2023-04-06T13:16:02;17.88;29.42
65707;SHT31;52423;43.512;5.220;2023-04-06T13:18:31;17.98;30.78
65707;SHT31;52423;43.512;5.220;2023-04-06T13:20:58;17.93;30.64
65707;SHT31;52423;43.512;5.220;2023-04-06T13:23:24;18.00;30.94
65707;SHT31;52423;43.512;5.220;2023-04-06T13:26:02;17.93;31.65
65707;SHT31;52423;43.512;5.220;2023-04-06T13:28:29;18.14;31.24
65707;SHT31;52423;43.512;5.220;2023-04-06T13:30:55;18.01;31.90
65707;SHT31;52423;43.512;5.220;2023-04-06T13:33:21;18.01;31.97
65707;SHT31;52423;43.512;5.220;2023-04-06T13:35:47;18.11;33.76
65707;SHT31;52423;43.512;5.220;2023-04-06T13:38:13;17.71;32.66
65707;SHT31;52423;43.512;5.220;2023-04-06T13:40:39;17.30;35.02
65707;SHT31;52423;43.512;5.220;2023-04-06T13:43:05;17.33;36.61
65707;SHT31;52423;43.512;5.220;2023-04-06T13:45:31;17.16;37.59
65707;SHT31;52423;43.512;5.220;2023-04-06T13:47:56;16.84;38.38
65707;SHT31;52423;43.512;5.220;2023-04-06T13:50:22;16.67;39.65
65707;SHT31;52423;43.512;5.220;2023-04-06T13:52:47;16.89;40.78
65707;SHT31;52423;43.512;5.220;2023-04-06T13:55:14;17.57;39.02
65707;SHT31;52423;43.512;5.220;2023-04-06T13:57:40;17.34;40.55
65707;SHT31;52423;43.512;5.220;2023-04-06T14:00:06;17.22;41.43
65707;SHT31;52423;43.512;5.220;2023-04-06T14:02:32;17.44;41.69
65707;SHT31;52423;43.512;5.220;2023-04-06T14:04:57;17.39;39.14
65707;SHT31;52423;43.512;5.220;2023-04-06T14:07:22;17.51;38.94
65707;SHT31;52423;43.512;5.220;2023-04-06T14:09:48;17.78;40.23
65707;SHT31;52423;43.512;5.220;2023-04-06T14:12:13;17.93;37.33
65707;SHT31;52423;43.512;5.220;2023-04-06T14:14:38;17.64;38.37
65707;SHT31;52423;43.512;5.220;2023-04-06T14:17:04;17.69;36.38
65707;SHT31;52423;43.512;5.220;2023-04-06T14:19:29;17.95;37.17
65707;SHT31;52423;43.512;5.220;2023-04-06T14:21:55;17.80;37.54
65707;SHT31;52423;43.512;5.220;2023-04-06T14:24:21;17.80;37.65
65707;SHT31;52423;43.512;5.220;2023-04-06T14:26:46;17.62;39.11
65707;SHT31;52423;43.512;5.220;2023-04-06T14:29:12;17.51;37.76
65707;SHT31;52423;43.512;5.220;2023-04-06T14:31:38;17.46;37.98
65707;SHT31;52423;43.512;5.220;2023-04-06T14:34:03;17.62;36.98
65707;SHT31;52423;43.512;5.220;2023-04-06T14:36:32;17.47;37.40
65707;SHT31;52423;43.512;5.220;2023-04-06T14:39:03;17.30;38.24
65707;SHT31;52423;43.512;5.220;2023-04-06T14:41:30;16.99;37.19
65707;SHT31;52423;43.512;5.220;2023-04-06T14:43:56;17.19;37.44
65707;SHT31;52423;43.512;5.220;2023-04-06T14:46:21;17.02;38.48
65707;SHT31;52423;43.512;5.220;2023-04-06T14:48:47;17.02;39.02
65707;SHT31;52423;43.512;5.220;2023-04-06T14:51:12;17.19;39.08
65707;SHT31;52423;43.512;5.220;2023-04-06T14:53:38;16.88;39.47
65707;SHT31;52423;43.512;5.220;2023-04-06T14:56:04;17.05;39.82
65707;SHT31;52423;43.512;5.220;2023-04-06T14:58:29;16.81;38.96
65707;SHT31;52423;43.512;5.220;2023-04-06T15:00:56;16.64;39.86
65707;SHT31;52423;43.512;5.220;2023-04-06T15:03:23;16.79;40.66
65707;SHT31;52423;43.512;5.220;2023-04-06T15:05:53;16.79;39.89
65707;SHT31;52423;43.512;5.220;2023-04-06T15:08:18;17.02;40.28
65707;SHT31;52423;43.512;5.220;2023-04-06T15:10:48;16.93;39.52
65707;SHT31;52423;43.512;5.220;2023-04-06T15:13:13;17.01;38.01
65707;SHT31;52423;43.512;5.220;2023-04-06T15:15:40;16.85;38.00
65707;SHT31;52423;43.512;5.220;2023-04-06T15:18:05;16.79;38.43
65707;SHT31;52423;43.512;5.220;2023-04-06T15:20:31;16.71;39.45
65707;SHT31;52423;43.512;5.220;2023-04-06T15:22:57;16.68;38.81
65707;SHT31;52423;43.512;5.220;2023-04-06T15:25:22;16.62;38.28
65707;SHT31;52423;43.512;5.220;2023-04-06T15:27:48;16.62;38.15
65707;SHT31;52423;43.512;5.220;2023-04-06T15:30:13;16.61;38.83
65707;SHT31;52423;43.512;5.220;2023-04-06T15:32:38;16.69;38.85
65707;SHT31;52423;43.512;5.220;2023-04-06T15:35:11;16.60;38.83
65707;SHT31;52423;43.512;5.220;2023-04-06T15:37:36;16.48;38.32
65707;SHT31;52423;43.512;5.220;2023-04-06T15:40:02;16.47;37.90
65707;SHT31;52423;43.512;5.220;2023-04-06T15:42:27;16.31;37.60
65707;SHT31;52423;43.512;5.220;2023-04-06T15:44:53;16.35;38.65